sensor_id;sensor_type;location;lat;lon;timestamp;temperature;humidity
18002;DHT22;9126;48.160;17.130;2022-07-06T00:02:06;20.50;56.50
18002;DHT22;9126;48.160;17.130;2022-07-06T00:04:35;20.50;56.60
18002;DHT22;9126;48.160;17.130;2022-07-06T00:07:03;20.40;56.70
18002;DHT22;9126;48.160;17.130;2022-07-06T00:09:30;20.40;57.00
18002;DHT22;9126;48.160;17.130;2022-07-06T00:11:57;20.30;57.20
18002;DHT22;9126;48.160;17.130;2022-07-06T00:14:25;20.30;57.50
18002;DHT22;9126;48.160;17.130;2022-07-06T00:16:53;20.30;57.70
18002;DHT22;9126;48.160;17.130;2022-07-06T00:19:22;20.20;57.90
18002;DHT22;9126;48.160;17.130;2022-07-06T00:21:50;20.20;58.10
18002;DHT22;9126;48.160;17.130;2022-07-06T00:24:19;20.20;58.20
18002;DHT22;9126;48.160;17.130;2022-07-06T00:26:49;20.20;58.40
18002;DHT22;9126;48.160;17.130;2022-07-06T00:29:17;20.10;58.50
18002;DHT22;9126;48.160;17.130;2022-07-06T00:31:44;20.10;58.70
18002;DHT22;9126;48.160;17.130;2022-07-06T00:34:12;20.10;58.90
18002;DHT22;9126;48.160;17.130;2022-07-06T00:36:39;20.00;59.00
18002;DHT22;9126;48.160;17.130;2022-07-06T00:39:08;20.00;59.10
18002;DHT22;9126;48.160;17.130;2022-07-06T00:41:35;20.00;59.20
18002;DHT22;9126;48.160;17.130;2022-07-06T00:44:12;20.00;59.20
18002;DHT22;9126;48.160;17.130;2022-07-06T00:46:39;19.90;59.10
18002;DHT22;9126;48.160;17.130;2022-07-06T00:49:07;19.90;59.00
18002;DHT22;9126;48.160;17.130;2022-07-06T00:51:55;19.90;58.80
18002;DHT22;9126;48.160;17.130;2022-07-06T00:54:25;20.00;58.60
18002;DHT22;9126;48.160;17.130;2022-07-06T00:56:52;20.00;58.40
18002;DHT22;9126;48.160;17.130;2022-07-06T00:59:20;20.00;58.20
18002;DHT22;9126;48.160;17.130;2022-07-06T01:01:47;20.00;58.00
18002;DHT22;9126;48.160;17.130;2022-07-06T01:04:14;20.00;57.80
18002;DHT22;9126;48.160;17.130;2022-07-06T01:06:41;20.10;57.70
18002;DHT22;9126;48.160;17.130;2022-07-06T01:09:08;20.10;57.40
18002;DHT22;9126;48.160;17.130;2022-07-06T01:11:37;20.10;57.00
18002;DHT22;9126;48.160;17.130;2022-07-06T01:14:08;20.10;56.80
18002;DHT22;9126;48.160;17.130;2022-07-06T01:16:35;20.00;56.60
18002;DHT22;9126;48.160;17.130;2022-07-06T01:19:02;20.10;56.50
18002;DHT22;9126;48.160;17.130;2022-07-06T01:21:30;20.10;56.90
18002;DHT22;9126;48.160;17.130;2022-07-06T01:23:57;20.10;56.20
18002;DHT22;9126;48.160;17.130;2022-07-06T01:26:25;20.10;56.00
18002;DHT22;9126;48.160;17.130;2022-07-06T01:28:52;20.10;56.00
18002;DHT22;9126;48.160;17.130;2022-07-06T01:31:22;20.20;55.90
18002;DHT22;9126;48.160;17.130;2022-07-06T01:33:51;20.20;55.80
18002;DHT22;9126;48.160;17.130;2022-07-06T01:36:19;20.30;55.70
18002;DHT22;9126;48.160;17.130;2022-07-06T01:38:50;20.20;55.60
18002;DHT22;9126;48.160;17.130;2022-07-06T01:41:17;20.20;55.80
18002;DHT22;9126;48.160;17.130;2022-07-06T01:43:46;20.20;55.70
18002;DHT22;9126;48.160;17.130;2022-07-06T01:46:13;20.20;55.60
18002;DHT22;9126;48.160;17.130;2022-07-06T01:48:41;20.20;55.80
18002;DHT22;9126;48.160;17.130;2022-07-06T01:51:08;20.20;55.90
18002;DHT22;9126;48.160;17.130;2022-07-06T01:53:36;20.30;55.80
18002;DHT22;9126;48.160;17.130;2022-07-06T01:56:06;20.20;55.80
18002;DHT22;9126;48.160;17.130;2022-07-06T01:58:33;20.20;55.80
18002;DHT22;9126;48.160;17.130;2022-07-06T02:01:04;20.20;55.80
18002;DHT22;9126;48.160;17.130;2022-07-06T02:03:33;20.20;55.70
18002;DHT22;9126;48.160;17.130;2022-07-06T02:06:00;20.30;55.70
18002;DHT22;9126;48.160;17.130;2022-07-06T02:08:27;20.30;55.70
18002;DHT22;9126;48.160;17.130;2022-07-06T02:10:55;20.30;55.70
18002;DHT22;9126;48.160;17.130;2022-07-06T02:13:24;20.40;55.70
18002;DHT22;9126;48.160;17.130;2022-07-06T02:15:52;20.50;55.60
18002;DHT22;9126;48.160;17.130;2022-07-06T02:18:19;20.50;55.50
18002;DHT22;9126;48.160;17.130;2022-07-06T02:20:46;20.50;55.30
18002;DHT22;9126;48.160;17.130;2022-07-06T02:23:14;20.50;55.20
18002;DHT22;9126;48.160;17.130;2022-07-06T02:25:41;20.50;55.30
18002;DHT22;9126;48.160;17.130;2022-07-06T02:28:08;20.40;55.30
18002;DHT22;9126;48.160;17.130;2022-07-06T02:30:37;20.50;55.20
18002;DHT22;9126;48.160;17.130;2022-07-06T02:33:07;20.60;55.10
18002;DHT22;9126;48.160;17.130;2022-07-06T02:35:34;20.70;54.90
18002;DHT22;9126;48.160;17.130;2022-07-06T02:38:03;20.80;54.70
18002;DHT22;9126;48.160;17.130;2022-07-06T02:40:30;20.70;54.50
18002;DHT22;9126;48.160;17.130;2022-07-06T02:42:58;20.70;54.40
18002;DHT22;9126;48.160;17.130;2022-07-06T02:45:25;20.70;54.30
18002;DHT22;9126;48.160;17.130;2022-07-06T02:47:56;20.60;54.20
18002;DHT22;9126;48.160;17.130;2022-07-06T02:50:23;20.60;54.10
18002;DHT22;9126;48.160;17.130;2022-07-06T02:52:51;20.70;53.90
18002;DHT22;9126;48.160;17.130;2022-07-06T02:55:18;20.70;53.60
18002;DHT22;9126;48.160;17.130;2022-07-06T02:57:45;20.70;53.20
18002;DHT22;9126;48.160;17.130;2022-07-06T03:00:13;20.70;53.00
18002;DHT22;9126;48.160;17.130;2022-07-06T03:02:40;20.70;52.80
18002;DHT22;9126;48.160;17.130;2022-07-06T03:05:09;20.70;52.70
18002;DHT22;9126;48.160;17.130;2022-07-06T03:07:38;20.70;52.70
18002;DHT22;9126;48.160;17.130;2022-07-06T03:10:06;20.80;52.80
18002;DHT22;9126;48.160;17.130;2022-07-06T03:12:33;20.80;52.80
18002;DHT22;9126;48.160;17.130;2022-07-06T03:15:00;20.80;52.60
18002;DHT22;9126;48.160;17.130;2022-07-06T03:17:27;20.90;52.40
18002;DHT22;9126;48.160;17.130;2022-07-06T03:19:55;21.00;52.00
18002;DHT22;9126;48.160;17.130;2022-07-06T03:22:23;21.10;51.70
18002;DHT22;9126;48.160;17.130;2022-07-06T03:24:51;21.10;51.30
18002;DHT22;9126;48.160;17.130;2022-07-06T03:27:18;21.20;50.90
18002;DHT22;9126;48.160;17.130;2022-07-06T03:29:45;21.30;50.60
18002;DHT22;9126;48.160;17.130;2022-07-06T03:32:14;21.30;50.10
18002;DHT22;9126;48.160;17.130;2022-07-06T03:34:41;21.40;49.60
18002;DHT22;9126;48.160;17.130;2022-07-06T03:37:08;21.50;49.20
18002;DHT22;9126;48.160;17.130;2022-07-06T03:39:38;21.50;48.90
18002;DHT22;9126;48.160;17.130;2022-07-06T03:42:06;21.60;48.90
18002;DHT22;9126;48.160;17.130;2022-07-06T03:44:33;21.60;48.90
18002;DHT22;9126;48.160;17.130;2022-07-06T03:47:00;21.50;48.90
18002;DHT22;9126;48.160;17.130;2022-07-06T03:49:27;21.50;49.00
18002;DHT22;9126;48.160;17.130;2022-07-06T03:51:54;21.40;48.90
18002;DHT22;9126;48.160;17.130;2022-07-06T03:54:22;21.30;48.90
18002;DHT22;9126;48.160;17.130;2022-07-06T03:56:50;21.30;49.00
18002;DHT22;9126;48.160;17.130;2022-07-06T03:59:17;21.30;49.00
18002;DHT22;9126;48.160;17.130;2022-07-06T04:01:45;21.30;48.90
18002;DHT22;9126;48.160;17.130;2022-07-06T04:04:12;21.20;48.80
18002;DHT22;9126;48.160;17.130;2022-07-06T04:06:39;21.30;48.80
18002;DHT22;9126;48.160;17.130;2022-07-06T04:09:06;21.30;48.70
18002;DHT22;9126;48.160;17.130;2022-07-06T04:11:33;21.40;48.70
18002;DHT22;9126;48.160;17.130;2022-07-06T04:14:02;21.40;48.70
18002;DHT22;9126;48.160;17.130;2022-07-06T04:16:29;21.40;48.60
18002;DHT22;9126;48.160;17.130;2022-07-06T04:18:56;21.50;48.50
18002;DHT22;9126;48.160;17.130;2022-07-06T04:21:23;21.50;48.40
18002;DHT22;9126;48.160;17.130;2022-07-06T04:23:51;21.60;48.20
18002;DHT22;9126;48.160;17.130;2022-07-06T04:26:18;21.60;48.00
18002;DHT22;9126;48.160;17.130;2022-07-06T04:28:46;21.60;47.90
18002;DHT22;9126;48.160;17.130;2022-07-06T04:31:17;21.60;47.80
18002;DHT22;9126;48.160;17.130;2022-07-06T04:33:44;21.70;47.90
18002;DHT22;9126;48.160;17.130;2022-07-06T04:36:11;21.70;47.80
18002;DHT22;9126;48.160;17.130;2022-07-06T04:38:39;21.70;47.90
18002;DHT22;9126;48.160;17.130;2022-07-06T04:41:06;21.70;47.80
18002;DHT22;9126;48.160;17.130;2022-07-06T04:43:36;21.70;47.80
18002;DHT22;9126;48.160;17.130;2022-07-06T04:46:04;21.80;48.00
18002;DHT22;9126;48.160;17.130;2022-07-06T04:48:34;21.70;47.90
18002;DHT22;9126;48.160;17.130;2022-07-06T04:51:04;21.70;48.20
18002;DHT22;9126;48.160;17.130;2022-07-06T04:53:32;21.80;48.10
18002;DHT22;9126;48.160;17.130;2022-07-06T04:55:59;21.80;48.20
18002;DHT22;9126;48.160;17.130;2022-07-06T04:58:27;21.80;48.40
18002;DHT22;9126;48.160;17.130;2022-07-06T05:00:54;21.80;48.40
18002;DHT22;9126;48.160;17.130;2022-07-06T05:03:21;21.90;48.40
18002;DHT22;9126;48.160;17.130;2022-07-06T05:05:49;22.00;48.30
18002;DHT22;9126;48.160;17.130;2022-07-06T05:08:19;22.00;48.10
18002;DHT22;9126;48.160;17.130;2022-07-06T05:10:48;22.10;48.10
18002;DHT22;9126;48.160;17.130;2022-07-06T05:13:17;22.10;48.10
18002;DHT22;9126;48.160;17.130;2022-07-06T05:15:45;22.10;48.00
18002;DHT22;9126;48.160;17.130;2022-07-06T05:18:12;22.20;48.00
18002;DHT22;9126;48.160;17.130;2022-07-06T05:20:39;22.30;48.00
18002;DHT22;9126;48.160;17.130;2022-07-06T05:23:07;22.30;47.90
18002;DHT22;9126;48.160;17.130;2022-07-06T05:25:38;22.40;47.90
18002;DHT22;9126;48.160;17.130;2022-07-06T05:28:05;22.40;47.80
18002;DHT22;9126;48.160;17.130;2022-07-06T05:30:32;22.50;47.90
18002;DHT22;9126;48.160;17.130;2022-07-06T05:33:02;22.50;47.90
18002;DHT22;9126;48.160;17.130;2022-07-06T05:35:30;22.50;47.90
18002;DHT22;9126;48.160;17.130;2022-07-06T05:37:57;22.60;48.00
18002;DHT22;9126;48.160;17.130;2022-07-06T05:40:27;22.60;48.00
18002;DHT22;9126;48.160;17.130;2022-07-06T05:42:54;22.70;48.00
18002;DHT22;9126;48.160;17.130;2022-07-06T05:45:24;22.70;47.80
18002;DHT22;9126;48.160;17.130;2022-07-06T05:47:51;22.80;47.80
18002;DHT22;9126;48.160;17.130;2022-07-06T05:50:36;22.90;47.60
18002;DHT22;9126;48.160;17.130;2022-07-06T05:53:05;23.00;47.60
18002;DHT22;9126;48.160;17.130;2022-07-06T05:55:34;23.00;47.50
18002;DHT22;9126;48.160;17.130;2022-07-06T05:58:02;23.00;47.50
18002;DHT22;9126;48.160;17.130;2022-07-06T06:00:35;23.00;47.50
18002;DHT22;9126;48.160;17.130;2022-07-06T06:03:03;23.00;47.60
18002;DHT22;9126;48.160;17.130;2022-07-06T06:05:32;23.10;47.80
18002;DHT22;9126;48.160;17.130;2022-07-06T06:08:05;23.20;48.20
18002;DHT22;9126;48.160;17.130;2022-07-06T06:10:41;23.30;48.40
18002;DHT22;9126;48.160;17.130;2022-07-06T06:13:09;23.30;48.60
18002;DHT22;9126;48.160;17.130;2022-07-06T06:15:37;23.40;48.70
18002;DHT22;9126;48.160;17.130;2022-07-06T06:18:04;23.30;48.70
18002;DHT22;9126;48.160;17.130;2022-07-06T06:20:32;23.40;49.00
18002;DHT22;9126;48.160;17.130;2022-07-06T06:22:59;23.50;49.10
18002;DHT22;9126;48.160;17.130;2022-07-06T06:25:31;23.60;49.10
18002;DHT22;9126;48.160;17.130;2022-07-06T06:28:02;23.50;48.60
18002;DHT22;9126;48.160;17.130;2022-07-06T06:30:30;23.40;48.30
18002;DHT22;9126;48.160;17.130;2022-07-06T06:33:08;23.40;48.80
18002;DHT22;9126;48.160;17.130;2022-07-06T06:35:38;23.50;48.20
18002;DHT22;9126;48.160;17.130;2022-07-06T06:38:06;23.50;48.00
18002;DHT22;9126;48.160;17.130;2022-07-06T06:40:33;23.50;48.50
18002;DHT22;9126;48.160;17.130;2022-07-06T06:43:02;23.50;47.70
18002;DHT22;9126;48.160;17.130;2022-07-06T06:45:29;23.60;48.20
18002;DHT22;9126;48.160;17.130;2022-07-06T06:47:57;23.60;47.60
18002;DHT22;9126;48.160;17.130;2022-07-06T06:50:25;23.70;47.50
18002;DHT22;9126;48.160;17.130;2022-07-06T06:52:53;23.80;47.50
18002;DHT22;9126;48.160;17.130;2022-07-06T06:55:21;23.90;47.40
18002;DHT22;9126;48.160;17.130;2022-07-06T06:57:49;24.00;47.30
18002;DHT22;9126;48.160;17.130;2022-07-06T07:00:17;24.10;47.20
18002;DHT22;9126;48.160;17.130;2022-07-06T07:02:45;24.30;47.20
18002;DHT22;9126;48.160;17.130;2022-07-06T07:05:13;24.50;46.80
18002;DHT22;9126;48.160;17.130;2022-07-06T07:07:40;24.50;46.50
18002;DHT22;9126;48.160;17.130;2022-07-06T07:10:09;24.30;46.40
18002;DHT22;9126;48.160;17.130;2022-07-06T07:12:42;24.30;46.60
18002;DHT22;9126;48.160;17.130;2022-07-06T07:15:09;24.20;46.70
18002;DHT22;9126;48.160;17.130;2022-07-06T07:17:38;24.10;47.00
18002;DHT22;9126;48.160;17.130;2022-07-06T07:20:07;24.00;47.20
18002;DHT22;9126;48.160;17.130;2022-07-06T07:22:34;24.00;47.30
18002;DHT22;9126;48.160;17.130;2022-07-06T07:25:01;23.90;47.60
18002;DHT22;9126;48.160;17.130;2022-07-06T07:27:28;23.90;47.90
18002;DHT22;9126;48.160;17.130;2022-07-06T07:29:57;23.90;48.20
18002;DHT22;9126;48.160;17.130;2022-07-06T07:32:25;24.00;48.70
18002;DHT22;9126;48.160;17.130;2022-07-06T07:34:54;24.00;49.00
18002;DHT22;9126;48.160;17.130;2022-07-06T07:37:23;24.10;49.20
18002;DHT22;9126;48.160;17.130;2022-07-06T07:39:51;24.20;49.20
18002;DHT22;9126;48.160;17.130;2022-07-06T07:42:18;24.20;48.80
18002;DHT22;9126;48.160;17.130;2022-07-06T07:44:46;24.10;48.80
18002;DHT22;9126;48.160;17.130;2022-07-06T07:47:14;24.10;48.70
18002;DHT22;9126;48.160;17.130;2022-07-06T07:49:41;24.10;48.90
18002;DHT22;9126;48.160;17.130;2022-07-06T07:52:13;24.20;49.10
18002;DHT22;9126;48.160;17.130;2022-07-06T07:54:41;24.20;49.00
18002;DHT22;9126;48.160;17.130;2022-07-06T07:57:08;24.30;48.90
18002;DHT22;9126;48.160;17.130;2022-07-06T07:59:36;24.20;48.80
18002;DHT22;9126;48.160;17.130;2022-07-06T08:02:04;24.20;49.00
18002;DHT22;9126;48.160;17.130;2022-07-06T08:04:31;24.20;49.10
18002;DHT22;9126;48.160;17.130;2022-07-06T08:06:58;24.30;49.10
18002;DHT22;9126;48.160;17.130;2022-07-06T08:09:27;24.40;49.10
18002;DHT22;9126;48.160;17.130;2022-07-06T08:11:54;24.50;49.00
18002;DHT22;9126;48.160;17.130;2022-07-06T08:14:21;24.60;48.90
18002;DHT22;9126;48.160;17.130;2022-07-06T08:16:48;24.60;48.90
18002;DHT22;9126;48.160;17.130;2022-07-06T08:19:15;24.70;48.90
18002;DHT22;9126;48.160;17.130;2022-07-06T08:21:43;24.80;48.80
18002;DHT22;9126;48.160;17.130;2022-07-06T08:24:11;24.80;48.70
18002;DHT22;9126;48.160;17.130;2022-07-06T08:26:39;24.80;48.60
18002;DHT22;9126;48.160;17.130;2022-07-06T08:29:07;24.90;48.70
18002;DHT22;9126;48.160;17.130;2022-07-06T08:31:34;24.90;48.70
18002;DHT22;9126;48.160;17.130;2022-07-06T08:34:03;24.90;48.70
18002;DHT22;9126;48.160;17.130;2022-07-06T08:36:31;24.90;48.90
18002;DHT22;9126;48.160;17.130;2022-07-06T08:38:59;24.90;48.90
18002;DHT22;9126;48.160;17.130;2022-07-06T08:41:28;25.10;49.00
18002;DHT22;9126;48.160;17.130;2022-07-06T08:43:57;25.20;48.80
18002;DHT22;9126;48.160;17.130;2022-07-06T08:46:26;25.10;48.20
18002;DHT22;9126;48.160;17.130;2022-07-06T08:48:54;25.10;48.00
18002;DHT22;9126;48.160;17.130;2022-07-06T08:51:22;25.00;48.10
18002;DHT22;9126;48.160;17.130;2022-07-06T08:53:51;25.10;48.20
18002;DHT22;9126;48.160;17.130;2022-07-06T08:56:20;25.20;48.20
18002;DHT22;9126;48.160;17.130;2022-07-06T08:58:47;25.10;48.20
18002;DHT22;9126;48.160;17.130;2022-07-06T09:01:17;25.10;48.20
18002;DHT22;9126;48.160;17.130;2022-07-06T09:03:45;25.30;48.30
18002;DHT22;9126;48.160;17.130;2022-07-06T09:06:16;25.40;48.00
18002;DHT22;9126;48.160;17.130;2022-07-06T09:08:46;25.10;47.60
18002;DHT22;9126;48.160;17.130;2022-07-06T09:11:15;25.10;47.80
18002;DHT22;9126;48.160;17.130;2022-07-06T09:13:42;24.90;48.00
18002;DHT22;9126;48.160;17.130;2022-07-06T09:16:10;25.00;48.00
18002;DHT22;9126;48.160;17.130;2022-07-06T09:18:43;25.00;47.90
18002;DHT22;9126;48.160;17.130;2022-07-06T09:21:11;25.10;48.00
18002;DHT22;9126;48.160;17.130;2022-07-06T09:23:39;25.10;47.90
18002;DHT22;9126;48.160;17.130;2022-07-06T09:26:08;25.20;48.00
18002;DHT22;9126;48.160;17.130;2022-07-06T09:28:43;25.20;47.90
18002;DHT22;9126;48.160;17.130;2022-07-06T09:31:11;25.20;47.80
18002;DHT22;9126;48.160;17.130;2022-07-06T09:33:53;25.20;47.70
18002;DHT22;9126;48.160;17.130;2022-07-06T09:36:41;25.30;47.80
18002;DHT22;9126;48.160;17.130;2022-07-06T09:39:38;25.50;47.70
18002;DHT22;9126;48.160;17.130;2022-07-06T09:42:07;25.60;47.20
18002;DHT22;9126;48.160;17.130;2022-07-06T09:44:36;25.70;47.30
18002;DHT22;9126;48.160;17.130;2022-07-06T09:47:05;25.80;47.20
18002;DHT22;9126;48.160;17.130;2022-07-06T09:49:34;25.90;47.10
18002;DHT22;9126;48.160;17.130;2022-07-06T09:52:04;26.00;47.00
18002;DHT22;9126;48.160;17.130;2022-07-06T09:54:32;26.10;46.90
18002;DHT22;9126;48.160;17.130;2022-07-06T09:57:03;26.30;46.70
18002;DHT22;9126;48.160;17.130;2022-07-06T09:59:34;26.40;46.30
18002;DHT22;9126;48.160;17.130;2022-07-06T10:02:04;26.50;46.10
18002;DHT22;9126;48.160;17.130;2022-07-06T10:04:32;26.40;45.50
18002;DHT22;9126;48.160;17.130;2022-07-06T10:07:01;26.50;45.20
18002;DHT22;9126;48.160;17.130;2022-07-06T10:09:29;26.60;44.60
18002;DHT22;9126;48.160;17.130;2022-07-06T10:11:58;26.60;44.10
18002;DHT22;9126;48.160;17.130;2022-07-06T10:14:27;26.80;43.90
18002;DHT22;9126;48.160;17.130;2022-07-06T10:16:56;26.90;43.60
18002;DHT22;9126;48.160;17.130;2022-07-06T10:19:26;26.80;43.00
18002;DHT22;9126;48.160;17.130;2022-07-06T10:21:56;26.80;42.80
18002;DHT22;9126;48.160;17.130;2022-07-06T10:24:27;26.80;42.70
18002;DHT22;9126;48.160;17.130;2022-07-06T10:26:57;26.80;42.60
18002;DHT22;9126;48.160;17.130;2022-07-06T10:29:24;26.90;42.70
18002;DHT22;9126;48.160;17.130;2022-07-06T10:31:53;27.10;42.60
18002;DHT22;9126;48.160;17.130;2022-07-06T10:34:22;27.20;42.30
18002;DHT22;9126;48.160;17.130;2022-07-06T10:36:51;27.30;42.10
18002;DHT22;9126;48.160;17.130;2022-07-06T10:39:33;27.30;42.00
18002;DHT22;9126;48.160;17.130;2022-07-06T10:42:41;27.30;41.70
18002;DHT22;9126;48.160;17.130;2022-07-06T10:45:10;27.40;41.60
18002;DHT22;9126;48.160;17.130;2022-07-06T10:47:38;27.40;41.60
18002;DHT22;9126;48.160;17.130;2022-07-06T10:50:07;27.50;41.50
18002;DHT22;9126;48.160;17.130;2022-07-06T10:52:50;27.80;41.20
18002;DHT22;9126;48.160;17.130;2022-07-06T10:55:37;28.10;40.70
18002;DHT22;9126;48.160;17.130;2022-07-06T10:58:06;28.40;40.30
18002;DHT22;9126;48.160;17.130;2022-07-06T11:00:51;28.30;40.10
18002;DHT22;9126;48.160;17.130;2022-07-06T11:03:40;28.20;40.00
18002;DHT22;9126;48.160;17.130;2022-07-06T11:06:10;28.40;39.90
18002;DHT22;9126;48.160;17.130;2022-07-06T11:08:46;28.60;39.90
18002;DHT22;9126;48.160;17.130;2022-07-06T11:11:16;28.80;39.60
18002;DHT22;9126;48.160;17.130;2022-07-06T11:13:54;28.90;39.50
18002;DHT22;9126;48.160;17.130;2022-07-06T11:16:23;29.10;39.40
18002;DHT22;9126;48.160;17.130;2022-07-06T11:19:03;29.20;39.40
18002;DHT22;9126;48.160;17.130;2022-07-06T11:21:34;29.40;39.20
18002;DHT22;9126;48.160;17.130;2022-07-06T11:24:03;29.20;39.00
18002;DHT22;9126;48.160;17.130;2022-07-06T11:26:32;28.90;39.00
18002;DHT22;9126;48.160;17.130;2022-07-06T11:29:04;28.50;39.20
18002;DHT22;9126;48.160;17.130;2022-07-06T11:31:37;28.40;39.60
18002;DHT22;9126;48.160;17.130;2022-07-06T11:34:05;28.30;39.70
18002;DHT22;9126;48.160;17.130;2022-07-06T11:36:32;28.30;39.70
18002;DHT22;9126;48.160;17.130;2022-07-06T11:39:02;28.20;39.40
18002;DHT22;9126;48.160;17.130;2022-07-06T11:41:35;28.10;39.20
18002;DHT22;9126;48.160;17.130;2022-07-06T11:44:03;28.30;39.20
18002;DHT22;9126;48.160;17.130;2022-07-06T11:46:32;28.60;38.80
18002;DHT22;9126;48.160;17.130;2022-07-06T11:49:01;28.90;38.10
18002;DHT22;9126;48.160;17.130;2022-07-06T11:51:35;28.80;37.60
18002;DHT22;9126;48.160;17.130;2022-07-06T11:54:11;28.90;37.60
18002;DHT22;9126;48.160;17.130;2022-07-06T11:56:45;29.10;37.40
18002;DHT22;9126;48.160;17.130;2022-07-06T11:59:15;29.20;37.00
18002;DHT22;9126;48.160;17.130;2022-07-06T12:01:42;29.20;36.90
18002;DHT22;9126;48.160;17.130;2022-07-06T12:04:11;29.30;36.80
18002;DHT22;9126;48.160;17.130;2022-07-06T12:06:39;29.50;36.70
18002;DHT22;9126;48.160;17.130;2022-07-06T12:09:07;29.40;36.60
18002;DHT22;9126;48.160;17.130;2022-07-06T12:11:36;29.40;36.40
18002;DHT22;9126;48.160;17.130;2022-07-06T12:14:15;29.40;36.30
18002;DHT22;9126;48.160;17.130;2022-07-06T12:16:43;29.10;36.40
18002;DHT22;9126;48.160;17.130;2022-07-06T12:19:11;29.00;36.60
18002;DHT22;9126;48.160;17.130;2022-07-06T12:21:44;28.80;36.90
18002;DHT22;9126;48.160;17.130;2022-07-06T12:24:20;28.60;37.20
18002;DHT22;9126;48.160;17.130;2022-07-06T12:26:48;28.50;37.20
18002;DHT22;9126;48.160;17.130;2022-07-06T12:29:17;28.60;37.40
18002;DHT22;9126;48.160;17.130;2022-07-06T12:31:50;28.90;37.30
18002;DHT22;9126;48.160;17.130;2022-07-06T12:34:19;29.10;37.00
18002;DHT22;9126;48.160;17.130;2022-07-06T12:36:50;29.20;36.90
18002;DHT22;9126;48.160;17.130;2022-07-06T12:39:19;29.30;36.90
18002;DHT22;9126;48.160;17.130;2022-07-06T12:41:49;29.20;36.60
18002;DHT22;9126;48.160;17.130;2022-07-06T12:44:19;29.10;36.50
18002;DHT22;9126;48.160;17.130;2022-07-06T12:46:48;29.10;36.50
18002;DHT22;9126;48.160;17.130;2022-07-06T12:49:18;29.20;36.20
18002;DHT22;9126;48.160;17.130;2022-07-06T12:51:57;29.30;35.80
18002;DHT22;9126;48.160;17.130;2022-07-06T12:54:47;29.00;36.70
18002;DHT22;9126;48.160;17.130;2022-07-06T12:57:17;28.70;38.00
18002;DHT22;9126;48.160;17.130;2022-07-06T12:59:48;28.60;38.90
18002;DHT22;9126;48.160;17.130;2022-07-06T13:02:23;28.50;39.50
18002;DHT22;9126;48.160;17.130;2022-07-06T13:04:57;28.50;39.80
18002;DHT22;9126;48.160;17.130;2022-07-06T13:07:25;28.50;39.90
18002;DHT22;9126;48.160;17.130;2022-07-06T13:09:55;28.70;40.10
18002;DHT22;9126;48.160;17.130;2022-07-06T13:12:24;29.00;40.00
18002;DHT22;9126;48.160;17.130;2022-07-06T13:14:53;29.30;39.80
18002;DHT22;9126;48.160;17.130;2022-07-06T13:17:20;29.40;39.70
18002;DHT22;9126;48.160;17.130;2022-07-06T13:19:49;29.30;39.70
18002;DHT22;9126;48.160;17.130;2022-07-06T13:22:16;29.30;39.70
18002;DHT22;9126;48.160;17.130;2022-07-06T13:24:44;29.40;39.60
18002;DHT22;9126;48.160;17.130;2022-07-06T13:27:13;29.50;39.60
18002;DHT22;9126;48.160;17.130;2022-07-06T13:29:41;29.60;39.60
18002;DHT22;9126;48.160;17.130;2022-07-06T13:32:11;29.70;39.50
18002;DHT22;9126;48.160;17.130;2022-07-06T13:34:39;29.70;39.50
18002;DHT22;9126;48.160;17.130;2022-07-06T13:37:08;29.60;39.60
18002;DHT22;9126;48.160;17.130;2022-07-06T13:39:36;29.30;39.80
18002;DHT22;9126;48.160;17.130;2022-07-06T13:42:04;29.10;40.20
18002;DHT22;9126;48.160;17.130;2022-07-06T13:44:33;29.10;40.40
18002;DHT22;9126;48.160;17.130;2022-07-06T13:47:03;29.30;40.40
18002;DHT22;9126;48.160;17.130;2022-07-06T13:49:32;29.80;40.30
18002;DHT22;9126;48.160;17.130;2022-07-06T13:52:00;30.30;39.80
18002;DHT22;9126;48.160;17.130;2022-07-06T13:54:29;30.40;38.50
18002;DHT22;9126;48.160;17.130;2022-07-06T13:56:56;30.20;37.60
18002;DHT22;9126;48.160;17.130;2022-07-06T13:59:23;30.20;36.90
18002;DHT22;9126;48.160;17.130;2022-07-06T14:01:51;30.50;36.30
18002;DHT22;9126;48.160;17.130;2022-07-06T14:04:18;30.90;35.70
18002;DHT22;9126;48.160;17.130;2022-07-06T14:06:46;31.30;35.20
18002;DHT22;9126;48.160;17.130;2022-07-06T14:09:19;31.00;34.60
18002;DHT22;9126;48.160;17.130;2022-07-06T14:11:46;30.50;34.60
18002;DHT22;9126;48.160;17.130;2022-07-06T14:14:17;30.20;34.60
18002;DHT22;9126;48.160;17.130;2022-07-06T14:16:45;30.50;34.70
18002;DHT22;9126;48.160;17.130;2022-07-06T14:19:20;30.90;34.30
18002;DHT22;9126;48.160;17.130;2022-07-06T14:21:50;31.20;33.90
18002;DHT22;9126;48.160;17.130;2022-07-06T14:24:17;31.00;33.70
18002;DHT22;9126;48.160;17.130;2022-07-06T14:26:46;31.20;33.60
18002;DHT22;9126;48.160;17.130;2022-07-06T14:29:14;31.60;33.30
18002;DHT22;9126;48.160;17.130;2022-07-06T14:31:42;31.90;32.90
18002;DHT22;9126;48.160;17.130;2022-07-06T14:34:11;31.60;32.70
18002;DHT22;9126;48.160;17.130;2022-07-06T14:36:41;31.00;32.80
18002;DHT22;9126;48.160;17.130;2022-07-06T14:39:10;30.50;33.40
18002;DHT22;9126;48.160;17.130;2022-07-06T14:41:47;30.10;33.90
18002;DHT22;9126;48.160;17.130;2022-07-06T14:44:21;29.60;34.30
18002;DHT22;9126;48.160;17.130;2022-07-06T14:46:53;29.30;34.70
18002;DHT22;9126;48.160;17.130;2022-07-06T14:49:21;29.70;34.80
18002;DHT22;9126;48.160;17.130;2022-07-06T14:51:48;30.80;34.30
18002;DHT22;9126;48.160;17.130;2022-07-06T14:54:17;31.60;33.20
18002;DHT22;9126;48.160;17.130;2022-07-06T14:56:44;32.10;32.50
18002;DHT22;9126;48.160;17.130;2022-07-06T14:59:11;32.70;31.90
18002;DHT22;9126;48.160;17.130;2022-07-06T15:01:38;32.70;31.30
18002;DHT22;9126;48.160;17.130;2022-07-06T15:04:05;33.50;31.00
18002;DHT22;9126;48.160;17.130;2022-07-06T15:06:33;34.20;30.20
18002;DHT22;9126;48.160;17.130;2022-07-06T15:09:01;34.20;29.90
18002;DHT22;9126;48.160;17.130;2022-07-06T15:11:41;33.80;29.70
18002;DHT22;9126;48.160;17.130;2022-07-06T15:14:11;33.60;29.80
18002;DHT22;9126;48.160;17.130;2022-07-06T15:16:38;32.80;30.00
18002;DHT22;9126;48.160;17.130;2022-07-06T15:19:06;32.40;30.30
18002;DHT22;9126;48.160;17.130;2022-07-06T15:21:36;32.20;30.40
18002;DHT22;9126;48.160;17.130;2022-07-06T15:24:08;32.10;30.20
18002;DHT22;9126;48.160;17.130;2022-07-06T15:26:44;32.00;30.00
18002;DHT22;9126;48.160;17.130;2022-07-06T15:29:11;31.60;30.00
18002;DHT22;9126;48.160;17.130;2022-07-06T15:31:39;31.30;30.30
18002;DHT22;9126;48.160;17.130;2022-07-06T15:34:10;31.10;31.20
18002;DHT22;9126;48.160;17.130;2022-07-06T15:36:45;30.80;31.00
18002;DHT22;9126;48.160;17.130;2022-07-06T15:39:17;30.50;31.40
18002;DHT22;9126;48.160;17.130;2022-07-06T15:41:50;30.00;31.80
18002;DHT22;9126;48.160;17.130;2022-07-06T15:44:23;29.90;32.40